Time;durP1;ratioP1;P1;durP2;ratioP2;P2;SDS_P1;SDS_P2;PMS_P1;PMS_P2;Temp;Humidity;BMP_temperature;BMP_pressure;BME280_temperature;BME280_humidity;BME280_pressure;Samples;Min_cycle;Max_cycle;Signal;HPM_P1;HPM_P2
2023/12/15 00:01:11;;;;;;;33.65;17.75;;;9.00;62.50;;;;;;4988952;28;20058;-53
2023/12/15 00:03:38;;;;;;;28.35;17.80;;;9.00;62.50;;;;;;4986991;28;20057;-47
2023/12/15 00:06:06;;;;;;;31.90;18.92;;;9.00;62.50;;;;;;4985228;28;20046;-46
2023/12/15 00:08:35;;;;;;;34.55;20.70;;;9.00;62.50;;;;;;4989900;28;20483;-51
2023/12/15 00:11:02;;;;;;;37.55;20.83;;;9.00;62.30;;;;;;4988919;28;20057;-52
2023/12/15 00:13:29;;;;;;;37.50;21.40;;;9.00;62.20;;;;;;4983255;28;20061;-51
2023/12/15 00:15:56;;;;;;;34.70;20.15;;;9.00;62.00;;;;;;4985121;28;20058;-49
2023/12/15 00:18:24;;;;;;;32.45;20.02;;;9.00;61.90;;;;;;4986357;28;20053;-45
2023/12/15 00:20:51;;;;;;;36.55;21.23;;;9.00;61.90;;;;;;4987384;28;20518;-49
2023/12/15 00:23:18;;;;;;;37.45;21.23;;;9.00;61.90;;;;;;4989422;28;20063;-48
2023/12/15 00:25:47;;;;;;;35.72;20.55;;;9.00;61.90;;;;;;4984136;28;20070;-48
2023/12/15 00:28:14;;;;;;;39.63;20.48;;;9.00;61.80;;;;;;4984525;28;20053;-43
2023/12/15 00:30:41;;;;;;;38.92;21.35;;;9.00;61.80;;;;;;4985801;28;20053;-47
2023/12/15 00:33:08;;;;;;;38.60;21.30;;;9.00;61.70;;;;;;4986571;28;20058;-47
2023/12/15 00:35:36;;;;;;;36.70;20.50;;;9.00;61.70;;;;;;4986498;28;20521;-49
2023/12/15 00:38:03;;;;;;;32.83;19.38;;;9.00;61.70;;;;;;4990275;28;20046;-52
2023/12/15 00:40:30;;;;;;;37.92;20.08;;;9.00;61.60;;;;;;4984831;28;20058;-49
2023/12/15 00:42:59;;;;;;;35.45;20.40;;;9.00;61.50;;;;;;4985556;28;20057;-51
2023/12/15 00:45:27;;;;;;;37.72;20.35;;;9.00;61.50;;;;;;4985037;28;20646;-51
2023/12/15 00:47:54;;;;;;;35.88;20.27;;;9.00;61.50;;;;;;4987083;28;20411;-47
2023/12/15 00:50:21;;;;;;;35.95;19.27;;;9.00;61.50;;;;;;4987625;28;20050;-45
2023/12/15 00:52:48;;;;;;;33.90;18.85;;;9.00;61.60;;;;;;4983759;28;20046;-51
2023/12/15 00:55:15;;;;;;;34.33;19.17;;;9.00;61.60;;;;;;4983852;28;20053;-50
2023/12/15 00:57:43;;;;;;;33.28;18.75;;;9.00;61.60;;;;;;4983268;28;20058;-49
2023/12/15 01:00:13;;;;;;;35.58;20.23;;;9.00;61.70;;;;;;4985686;28;20070;-52
2023/12/15 01:02:40;;;;;;;34.80;18.50;;;9.00;61.60;;;;;;4985274;28;20042;-47
2023/12/15 01:05:09;;;;;;;31.23;18.15;;;9.00;61.60;;;;;;4982948;28;20046;-50
2023/12/15 01:07:36;;;;;;;32.55;18.20;;;9.00;61.60;;;;;;4983843;28;20050;-50
2023/12/15 01:10:04;;;;;;;30.08;17.33;;;9.00;61.60;;;;;;4987215;28;20054;-50
2023/12/15 01:12:31;;;;;;;33.90;18.45;;;9.00;61.60;;;;;;4984722;28;20513;-51
2023/12/15 01:14:59;;;;;;;37.83;20.17;;;9.00;61.60;;;;;;4985940;28;20050;-47
2023/12/15 01:17:27;;;;;;;33.55;18.40;;;9.00;61.70;;;;;;4984928;28;20069;-46
2023/12/15 01:19:54;;;;;;;35.70;19.55;;;9.00;61.70;;;;;;4986214;28;20307;-51
2023/12/15 01:22:22;;;;;;;32.13;18.80;;;9.00;61.70;;;;;;4986918;28;20065;-49
2023/12/15 01:24:49;;;;;;;34.03;18.45;;;9.00;61.70;;;;;;4985255;28;20058;-51
2023/12/15 01:27:16;;;;;;;37.13;20.23;;;8.90;61.60;;;;;;4984581;28;20058;-48
2023/12/15 01:29:43;;;;;;;34.60;18.92;;;8.90;61.70;;;;;;4986765;28;20062;-52
2023/12/15 01:32:10;;;;;;;34.53;19.48;;;9.00;61.80;;;;;;4986989;28;20050;-52
2023/12/15 01:34:39;;;;;;;32.22;18.50;;;9.00;61.80;;;;;;4985986;28;20046;-49
2023/12/15 01:37:06;;;;;;;34.20;19.70;;;9.00;61.80;;;;;;4984538;28;20049;-49
2023/12/15 01:39:34;;;;;;;34.05;19.33;;;8.90;61.80;;;;;;4983445;28;20050;-49
2023/12/15 01:42:01;;;;;;;33.35;18.67;;;9.00;61.90;;;;;;4983078;28;20057;-49
2023/12/15 01:44:28;;;;;;;29.83;18.13;;;9.00;62.00;;;;;;4985246;28;20059;-45
2023/12/15 01:46:55;;;;;;;34.00;19.20;;;9.00;62.00;;;;;;4983239;28;20058;-50
2023/12/15 01:49:23;;;;;;;34.88;19.27;;;9.00;61.90;;;;;;4984687;28;20628;-48
2023/12/15 01:51:51;;;;;;;37.35;21.08;;;9.00;61.80;;;;;;4984323;28;20061;-47
2023/12/15 01:54:19;;;;;;;34.03;19.55;;;9.00;61.70;;;;;;4983564;28;20058;-48
2023/12/15 01:56:46;;;;;;;33.60;19.73;;;9.00;61.60;;;;;;4985769;28;20054;-51
2023/12/15 01:59:13;;;;;;;36.00;20.50;;;9.00;61.60;;;;;;4984141;28;20054;-48
2023/12/15 02:01:42;;;;;;;33.47;18.50;;;9.00;61.60;;;;;;4985948;28;20061;-52
2023/12/15 02:04:09;;;;;;;35.08;19.27;;;9.00;61.50;;;;;;4984538;28;20058;-53
2023/12/15 02:06:36;;;;;;;37.30;20.00;;;9.00;61.40;;;;;;4983863;28;20057;-50
2023/12/15 02:09:05;;;;;;;35.17;20.35;;;9.00;61.40;;;;;;4983539;28;20051;-52
2023/12/15 02:11:32;;;;;;;35.20;19.67;;;9.00;61.40;;;;;;4985116;28;20406;-52
2023/12/15 02:14:00;;;;;;;33.53;19.45;;;9.00;61.40;;;;;;4982804;28;20057;-42
2023/12/15 02:16:27;;;;;;;32.90;18.85;;;9.00;61.50;;;;;;4984711;28;20395;-53
2023/12/15 02:18:54;;;;;;;35.05;20.58;;;9.00;61.50;;;;;;4983936;28;20038;-44
2023/12/15 02:21:21;;;;;;;39.47;20.00;;;9.00;61.60;;;;;;4985126;28;20407;-39
2023/12/15 02:23:50;;;;;;;36.72;20.58;;;9.00;61.60;;;;;;4984198;28;20069;-39
2023/12/15 02:26:17;;;;;;;35.90;19.83;;;9.00;61.60;;;;;;4984402;28;20065;-39
2023/12/15 02:28:44;;;;;;;36.30;21.45;;;9.00;61.70;;;;;;4982907;28;20505;-39
2023/12/15 02:31:11;;;;;;;35.38;19.40;;;9.00;61.80;;;;;;4984035;28;20315;-40
2023/12/15 02:33:39;;;;;;;31.58;19.17;;;9.00;61.80;;;;;;4987390;28;20086;-39
2023/12/15 02:36:07;;;;;;;34.85;19.98;;;9.00;61.80;;;;;;4983052;28;20054;-40
2023/12/15 02:38:34;;;;;;;34.97;19.83;;;9.00;61.90;;;;;;4984582;28;20050;-40
2023/12/15 02:41:02;;;;;;;32.75;19.58;;;9.00;61.80;;;;;;4985171;28;20502;-39
2023/12/15 02:43:30;;;;;;;35.35;18.85;;;9.00;61.80;;;;;;4982601;28;20069;-39
2023/12/15 02:45:57;;;;;;;34.05;18.52;;;9.00;61.90;;;;;;4982758;28;20054;-39
2023/12/15 02:48:24;;;;;;;35.42;19.13;;;9.00;61.90;;;;;;4983016;28;20053;-40
2023/12/15 02:50:51;;;;;;;32.53;18.48;;;9.00;61.90;;;;;;4986301;28;20046;-40
2023/12/15 02:53:18;;;;;;;30.80;18.27;;;9.00;61.90;;;;;;4984046;28;20371;-39
2023/12/15 02:55:46;;;;;;;33.33;18.13;;;9.00;61.80;;;;;;4983588;28;20046;-39
2023/12/15 02:58:14;;;;;;;33.60;18.75;;;9.10;61.90;;;;;;4982456;28;20046;-39
2023/12/15 03:00:41;;;;;;;29.38;17.25;;;9.10;61.80;;;;;;4986334;28;20474;-39
2023/12/15 03:03:09;;;;;;;37.38;17.85;;;9.10;61.70;;;;;;4986684;28;20050;-40
2023/12/15 03:05:36;;;;;;;26.48;15.82;;;9.10;61.60;;;;;;4990186;28;20058;-40
2023/12/15 03:08:03;;;;;;;28.67;16.73;;;9.10;61.70;;;;;;4987631;28;20057;-39
2023/12/15 03:10:31;;;;;;;25.20;15.05;;;9.10;61.60;;;;;;4989459;28;20058;-39
2023/12/15 03:12:58;;;;;;;30.70;16.45;;;9.10;61.60;;;;;;4987017;28;20094;-39
2023/12/15 03:15:27;;;;;;;29.75;15.57;;;9.10;61.70;;;;;;4989539;28;20061;-39
2023/12/15 03:17:54;;;;;;;24.92;14.90;;;9.10;61.70;;;;;;4990076;28;20050;-40
2023/12/15 03:20:22;;;;;;;28.45;16.42;;;9.10;61.70;;;;;;4990240;28;20426;-39
2023/12/15 03:22:49;;;;;;;36.38;17.25;;;9.10;61.80;;;;;;4989845;28;20061;-39
2023/12/15 03:25:53;;;;;;;30.75;16.63;;;9.10;61.90;;;;;;4989159;28;20050;-39
2023/12/15 03:28:20;;;;;;;30.13;17.00;;;9.10;61.80;;;;;;4986929;28;20406;-39
2023/12/15 03:30:49;;;;;;;29.92;17.13;;;9.10;61.80;;;;;;4988797;28;20077;-39
2023/12/15 03:33:16;;;;;;;27.15;16.42;;;9.10;61.80;;;;;;4990278;28;20558;-40
2023/12/15 03:35:43;;;;;;;29.88;15.93;;;9.10;61.80;;;;;;4991637;28;20474;-39
2023/12/15 03:38:13;;;;;;;27.65;16.13;;;9.10;61.80;;;;;;4989192;28;20077;-39
2023/12/15 03:40:40;;;;;;;26.95;15.48;;;9.20;61.90;;;;;;4988115;28;20057;-39
2023/12/15 03:43:07;;;;;;;31.25;16.23;;;9.20;61.90;;;;;;4988854;28;20058;-39
2023/12/15 03:45:34;;;;;;;26.58;15.02;;;9.20;61.80;;;;;;4989103;28;20765;-39
2023/12/15 03:48:03;;;;;;;25.10;14.90;;;9.20;61.80;;;;;;4990931;28;20046;-39
2023/12/15 03:50:30;;;;;;;32.20;14.90;;;9.20;61.90;;;;;;4991449;28;20066;-40
2023/12/15 03:52:58;;;;;;;24.30;14.00;;;9.20;61.90;;;;;;4989734;28;20054;-39
2023/12/15 03:55:25;;;;;;;22.15;13.18;;;9.20;61.90;;;;;;4989574;28;20053;-39
2023/12/15 03:57:53;;;;;;;20.73;12.35;;;9.20;62.00;;;;;;4988871;28;20058;-39
2023/12/15 04:00:20;;;;;;;22.27;13.55;;;9.20;62.00;;;;;;4989600;28;20058;-39
2023/12/15 04:02:48;;;;;;;24.23;13.93;;;9.30;62.10;;;;;;4989952;28;20058;-39
2023/12/15 04:05:16;;;;;;;26.70;13.50;;;9.20;62.00;;;;;;4985963;28;20047;-38
2023/12/15 04:07:43;;;;;;;24.75;13.65;;;9.30;62.00;;;;;;4988848;28;20057;-40
2023/12/15 04:10:11;;;;;;;26.08;14.40;;;9.30;62.00;;;;;;4988131;28;20065;-40
2023/12/15 04:12:38;;;;;;;24.63;14.60;;;9.30;62.10;;;;;;4991402;28;20526;-39
2023/12/15 04:15:08;;;;;;;22.60;14.50;;;9.30;62.10;;;;;;4986725;28;20050;-38
2023/12/15 04:17:35;;;;;;;22.63;14.27;;;9.30;62.10;;;;;;4988252;28;20054;-38
2023/12/15 04:20:03;;;;;;;22.88;13.85;;;9.30;62.10;;;;;;4987993;28;20061;-39
2023/12/15 04:22:31;;;;;;;25.88;14.35;;;9.30;62.40;;;;;;4989412;28;20089;-39
2023/12/15 04:24:58;;;;;;;24.60;14.43;;;9.30;62.00;;;;;;4984314;28;20498;-39
2023/12/15 04:27:26;;;;;;;23.20;14.13;;;9.30;62.10;;;;;;4986750;28;20070;-39
2023/12/15 04:29:53;;;;;;;24.70;14.88;;;9.30;62.10;;;;;;4985790;28;20051;-40
2023/12/15 04:32:20;;;;;;;24.95;14.23;;;9.40;62.10;;;;;;4983674;28;20415;-39
2023/12/15 04:34:47;;;;;;;26.88;12.75;;;9.40;62.10;;;;;;4985824;28;20087;-39
2023/12/15 04:37:15;;;;;;;26.35;12.10;;;9.40;62.10;;;;;;4987881;28;20055;-39
2023/12/15 04:39:46;;;;;;;22.48;12.80;;;9.40;62.00;;;;;;4987679;28;20043;-40
2023/12/15 04:42:13;;;;;;;21.13;12.82;;;9.40;62.00;;;;;;4986314;28;20565;-51
2023/12/15 04:44:45;;;;;;;20.38;11.93;;;9.40;62.10;;;;;;4985610;28;20054;-52
2023/12/15 04:47:12;;;;;;;21.13;11.93;;;9.40;62.10;;;;;;4996828;28;20057;-51
2023/12/15 04:49:39;;;;;;;21.20;12.02;;;9.40;62.10;;;;;;4994690;28;20054;-52
2023/12/15 04:52:07;;;;;;;20.05;11.93;;;9.40;62.10;;;;;;4994553;28;20065;-50
2023/12/15 04:54:34;;;;;;;17.75;10.95;;;9.40;62.10;;;;;;4998875;28;20050;-52
2023/12/15 04:57:03;;;;;;;20.83;11.85;;;9.40;62.10;;;;;;5002873;28;20502;-46
2023/12/15 04:59:30;;;;;;;16.88;10.82;;;9.40;62.10;;;;;;4992402;28;20054;-52
2023/12/15 05:01:57;;;;;;;20.05;11.25;;;9.40;62.20;;;;;;4987411;28;20057;-47
2023/12/15 05:04:24;;;;;;;19.50;11.55;;;9.40;62.30;;;;;;4992457;28;20065;-51
2023/12/15 05:06:51;;;;;;;18.20;11.35;;;9.40;62.30;;;;;;4986495;28;20054;-50
2023/12/15 05:09:19;;;;;;;20.17;11.77;;;9.40;62.40;;;;;;4989246;28;20422;-53
2023/12/15 05:11:46;;;;;;;20.73;12.63;;;9.40;62.50;;;;;;4988458;28;20047;-51
2023/12/15 05:14:14;;;;;;;20.45;11.82;;;9.50;62.60;;;;;;4983779;28;20387;-53
2023/12/15 05:16:42;;;;;;;21.70;12.20;;;9.50;62.60;;;;;;4983967;28;20391;-52
2023/12/15 05:19:09;;;;;;;21.23;11.93;;;9.50;62.70;;;;;;4991584;28;20050;-51
2023/12/15 05:21:36;;;;;;;22.40;11.68;;;9.50;62.60;;;;;;4984823;28;20050;-49
2023/12/15 05:24:04;;;;;;;20.13;12.15;;;9.50;62.70;;;;;;4985592;28;20043;-46
2023/12/15 05:26:32;;;;;;;22.05;11.95;;;9.50;62.70;;;;;;4987317;28;20049;-52
2023/12/15 05:28:59;;;;;;;22.05;12.27;;;9.50;62.70;;;;;;4982994;28;20054;-51
2023/12/15 05:31:28;;;;;;;21.92;12.90;;;9.50;62.60;;;;;;4986192;28;20054;-53
2023/12/15 05:33:55;;;;;;;22.67;12.68;;;9.50;62.60;;;;;;4987576;28;20050;-53
2023/12/15 05:36:23;;;;;;;22.65;13.32;;;9.60;62.60;;;;;;4984689;28;20058;-52
2023/12/15 05:38:52;;;;;;;23.95;12.45;;;9.60;62.60;;;;;;4981906;28;20050;-49
2023/12/15 05:41:19;;;;;;;20.17;10.63;;;9.50;62.60;;;;;;4991321;28;20050;-54
2023/12/15 05:43:47;;;;;;;21.52;10.75;;;9.60;62.50;;;;;;4981291;28;20061;-54
2023/12/15 05:46:14;;;;;;;20.17;11.43;;;9.60;62.50;;;;;;4986998;28;20125;-53
2023/12/15 05:48:43;;;;;;;24.52;12.63;;;9.60;63.20;;;;;;4982837;28;20267;-52
2023/12/15 05:51:10;;;;;;;22.40;12.65;;;9.60;62.50;;;;;;4984707;28;20058;-49
2023/12/15 05:53:37;;;;;;;21.77;12.50;;;9.60;62.60;;;;;;4986151;28;20410;-47
2023/12/15 05:56:06;;;;;;;26.15;13.75;;;9.60;62.60;;;;;;4990900;28;20050;-53
2023/12/15 05:58:33;;;;;;;21.17;12.77;;;9.60;62.70;;;;;;4986099;28;20064;-49
2023/12/15 06:01:00;;;;;;;24.13;14.57;;;9.60;62.80;;;;;;4987455;28;20065;-51
2023/12/15 06:03:27;;;;;;;19.08;12.38;;;9.60;62.70;;;;;;4986478;28;20061;-51
2023/12/15 06:05:56;;;;;;;19.30;11.23;;;9.70;62.80;;;;;;4986225;28;20046;-47
2023/12/15 06:08:23;;;;;;;19.27;11.68;;;9.70;62.70;;;;;;4987921;28;20526;-46
2023/12/15 06:10:50;;;;;;;21.65;11.55;;;9.60;62.50;;;;;;4986511;28;20050;-51
2023/12/15 06:13:18;;;;;;;21.38;11.25;;;9.70;62.60;;;;;;4984446;28;20054;-52
2023/12/15 06:15:45;;;;;;;17.02;10.52;;;9.70;62.60;;;;;;4985638;28;20057;-51
2023/12/15 06:18:12;;;;;;;22.55;10.98;;;9.70;62.70;;;;;;4987544;28;20050;-50
2023/12/15 06:20:39;;;;;;;22.35;11.20;;;9.70;62.70;;;;;;4982698;28;20057;-50
2023/12/15 06:23:08;;;;;;;18.15;10.90;;;9.70;62.80;;;;;;4983431;28;20054;-50
2023/12/15 06:25:36;;;;;;;18.17;11.02;;;9.70;62.90;;;;;;4965276;28;20500;-47
2023/12/15 06:28:03;;;;;;;18.13;10.57;;;9.70;62.90;;;;;;4966601;28;20069;-47
2023/12/15 06:30:32;;;;;;;19.40;10.18;;;9.70;63.00;;;;;;4966450;28;20356;-46
2023/12/15 06:32:59;;;;;;;21.13;10.93;;;9.70;63.00;;;;;;4963357;28;20463;-51
2023/12/15 06:35:26;;;;;;;15.80;10.02;;;9.70;63.10;;;;;;4967484;28;20051;-48
2023/12/15 06:37:53;;;;;;;19.52;10.65;;;9.70;63.10;;;;;;4966700;28;20061;-41
2023/12/15 06:40:22;;;;;;;20.13;11.32;;;9.70;63.20;;;;;;4964972;28;20093;-47
2023/12/15 06:42:49;;;;;;;20.13;10.40;;;9.70;63.30;;;;;;4968035;28;20388;-51
2023/12/15 06:45:17;;;;;;;19.13;11.45;;;9.70;63.40;;;;;;4963686;28;20061;-52
2023/12/15 06:47:44;;;;;;;22.83;10.50;;;9.70;63.40;;;;;;4967841;28;20549;-53
2023/12/15 06:50:11;;;;;;;15.20;9.63;;;9.70;63.50;;;;;;4966424;28;20057;-50
2023/12/15 06:52:38;;;;;;;15.80;9.63;;;9.70;63.50;;;;;;4958156;28;20055;-51
2023/12/15 06:55:06;;;;;;;16.27;9.57;;;9.70;63.60;;;;;;4964601;28;20055;-52
2023/12/15 06:57:35;;;;;;;15.63;9.32;;;9.70;63.60;;;;;;4964939;28;20495;-50
2023/12/15 07:00:03;;;;;;;14.38;9.63;;;9.70;63.60;;;;;;4965738;28;20055;-49
2023/12/15 07:02:30;;;;;;;19.25;9.38;;;9.70;63.70;;;;;;4962145;28;20062;-50
2023/12/15 07:04:58;;;;;;;15.80;9.60;;;9.80;63.80;;;;;;4966444;28;20520;-49
2023/12/15 07:07:25;;;;;;;14.55;9.20;;;9.70;63.80;;;;;;4964012;28;20058;-50
2023/12/15 07:09:53;;;;;;;14.68;8.98;;;9.80;63.90;;;;;;4964872;28;20054;-52
2023/12/15 07:12:20;;;;;;;19.38;9.75;;;9.80;63.90;;;;;;4964361;28;20067;-49
2023/12/15 07:14:48;;;;;;;16.60;9.43;;;9.80;63.80;;;;;;4957581;28;20073;-49
2023/12/15 07:17:16;;;;;;;14.15;9.38;;;9.80;63.80;;;;;;4964910;28;20061;-51
2023/12/15 07:19:43;;;;;;;16.13;9.45;;;9.80;63.80;;;;;;4968792;28;20125;-51
2023/12/15 07:22:10;;;;;;;16.40;9.20;;;9.80;63.70;;;;;;4964304;28;20395;-47
2023/12/15 07:24:37;;;;;;;17.25;9.13;;;9.90;63.80;;;;;;4962127;28;20046;-50
2023/12/15 07:27:05;;;;;;;16.63;9.57;;;9.80;63.80;;;;;;4961772;28;20046;-51
2023/12/15 07:29:32;;;;;;;16.52;9.77;;;9.90;63.80;;;;;;4962988;28;20058;-52
2023/12/15 07:32:01;;;;;;;16.95;9.82;;;9.90;63.80;;;;;;4965813;28;20055;-52
2023/12/15 07:34:28;;;;;;;15.43;9.48;;;9.90;63.70;;;;;;4963252;28;20062;-52
2023/12/15 07:36:55;;;;;;;17.23;9.95;;;9.90;63.80;;;;;;4965343;28;20050;-51
2023/12/15 07:39:22;;;;;;;15.85;9.45;;;9.90;63.80;;;;;;4966710;28;20059;-51
2023/12/15 07:41:50;;;;;;;16.23;9.15;;;9.90;63.70;;;;;;4964430;28;20058;-47
2023/12/15 07:44:18;;;;;;;15.93;9.60;;;10.00;64.00;;;;;;4962085;28;20753;-47
2023/12/15 07:46:45;;;;;;;14.82;9.35;;;9.90;63.60;;;;;;4966421;28;20062;-50
2023/12/15 07:49:14;;;;;;;18.80;9.30;;;10.00;63.60;;;;;;4966153;28;20051;-47
2023/12/15 07:51:41;;;;;;;14.15;8.98;;;10.00;63.70;;;;;;4969545;28;20526;-53
2023/12/15 07:54:09;;;;;;;14.40;8.77;;;10.00;63.70;;;;;;4969164;28;20054;-46
2023/12/15 07:56:36;;;;;;;14.93;9.90;;;10.00;63.80;;;;;;4972882;28;20054;-46
2023/12/15 07:59:03;;;;;;;18.58;10.15;;;10.00;63.80;;;;;;4966512;28;20062;-50
2023/12/15 08:01:30;;;;;;;14.73;8.65;;;10.00;63.70;;;;;;4968821;28;20042;-49
2023/12/15 08:03:58;;;;;;;15.75;9.10;;;10.10;63.80;;;;;;4967699;28;20687;-51
2023/12/15 08:06:27;;;;;;;15.10;8.80;;;10.10;63.70;;;;;;4966678;28;20053;-49
2023/12/15 08:08:56;;;;;;;16.77;9.25;;;10.10;63.70;;;;;;4970839;28;20137;-45
2023/12/15 08:11:23;;;;;;;14.40;9.30;;;10.10;63.70;;;;;;4967603;28;20510;-38
2023/12/15 08:13:50;;;;;;;14.43;8.38;;;10.10;63.80;;;;;;4965279;28;20514;-38
2023/12/15 08:16:18;;;;;;;14.30;8.60;;;10.10;64.50;;;;;;4966830;28;20055;-38
2023/12/15 08:18:45;;;;;;;14.45;8.13;;;10.10;63.90;;;;;;4967607;28;20047;-39
2023/12/15 08:21:13;;;;;;;15.48;8.93;;;10.10;64.00;;;;;;4969298;28;20059;-39
2023/12/15 08:23:41;;;;;;;14.25;8.20;;;10.10;64.00;;;;;;4965055;28;20046;-39
2023/12/15 08:26:09;;;;;;;15.93;7.55;;;10.10;64.20;;;;;;4968091;28;20123;-39
2023/12/15 08:28:36;;;;;;;19.30;7.93;;;10.10;64.30;;;;;;4967352;28;20058;-39
2023/12/15 08:31:04;;;;;;;13.35;7.68;;;10.10;64.40;;;;;;4969285;28;20066;-38
2023/12/15 08:33:31;;;;;;;11.57;7.70;;;10.10;64.40;;;;;;4967522;28;20047;-39
2023/12/15 08:35:59;;;;;;;15.13;8.93;;;10.20;64.50;;;;;;4965736;28;20503;-39
2023/12/15 08:38:26;;;;;;;16.17;9.18;;;10.20;64.60;;;;;;4965267;28;20054;-39
2023/12/15 08:40:54;;;;;;;13.70;8.88;;;10.20;64.60;;;;;;4967447;28;20506;-39
2023/12/15 08:43:22;;;;;;;15.52;9.18;;;10.20;64.60;;;;;;4967521;28;20063;-38
2023/12/15 08:45:49;;;;;;;13.40;8.30;;;10.20;64.60;;;;;;4967326;28;20670;-38
2023/12/15 08:48:17;;;;;;;13.20;8.35;;;10.30;64.60;;;;;;4970571;28;20415;-38
2023/12/15 08:50:44;;;;;;;14.43;7.65;;;10.30;64.60;;;;;;4963245;28;20491;-40
2023/12/15 08:53:15;;;;;;;11.18;7.75;;;10.30;64.50;;;;;;4966027;28;20050;-39
2023/12/15 08:55:42;;;;;;;13.07;7.75;;;10.30;64.50;;;;;;4966676;28;20062;-38
2023/12/15 08:58:11;;;;;;;11.15;7.55;;;10.40;64.50;;;;;;4966036;28;20074;-39
2023/12/15 09:00:38;;;;;;;15.38;7.80;;;10.40;64.40;;;;;;4968391;28;20491;-38
2023/12/15 09:03:07;;;;;;;13.73;8.18;;;10.40;64.40;;;;;;4965401;28;20050;-37
2023/12/15 09:05:35;;;;;;;14.35;7.95;;;10.40;64.40;;;;;;4962183;28;20055;-37
2023/12/15 09:08:03;;;;;;;14.27;8.60;;;10.40;64.40;;;;;;4962355;28;20081;-37
2023/12/15 09:10:33;;;;;;;14.13;8.30;;;10.50;64.40;;;;;;4964412;28;20053;-36
2023/12/15 09:13:02;;;;;;;12.18;7.68;;;10.40;64.30;;;;;;4961248;28;20058;-37
2023/12/15 09:15:31;;;;;;;14.55;8.60;;;10.50;64.30;;;;;;4960332;28;20055;-37
2023/12/15 09:17:58;;;;;;;13.93;8.30;;;10.50;64.30;;;;;;4962556;28;20668;-37
2023/12/15 09:20:25;;;;;;;11.40;8.38;;;10.50;64.30;;;;;;4964728;28;21663;-37
2023/12/15 09:22:54;;;;;;;13.55;8.38;;;10.50;64.30;;;;;;4967590;28;20585;-37
2023/12/15 09:25:21;;;;;;;10.40;7.38;;;10.50;64.40;;;;;;4968558;28;20084;-37
2023/12/15 09:27:48;;;;;;;12.73;7.53;;;10.60;64.40;;;;;;4965080;28;20051;-38
2023/12/15 09:30:17;;;;;;;12.93;7.65;;;10.60;64.30;;;;;;4966979;28;20055;-36
2023/12/15 09:32:45;;;;;;;10.65;7.22;;;10.60;64.30;;;;;;4965641;28;20050;-38
2023/12/15 09:35:13;;;;;;;12.50;6.65;;;10.60;64.20;;;;;;4963475;28;20058;-37
2023/12/15 09:37:40;;;;;;;12.48;6.75;;;10.70;64.10;;;;;;4966879;28;20057;-37
2023/12/15 09:40:08;;;;;;;10.93;6.88;;;10.60;64.00;;;;;;4966197;28;20404;-37
2023/12/15 09:42:35;;;;;;;15.43;6.65;;;10.70;63.90;;;;;;4966381;28;20057;-37
2023/12/15 09:45:03;;;;;;;9.68;6.63;;;10.70;63.90;;;;;;4966337;28;20054;-37
2023/12/15 09:47:31;;;;;;;9.98;6.57;;;10.70;63.90;;;;;;4967650;28;20415;-37
2023/12/15 09:50:04;;;;;;;10.98;6.22;;;10.70;64.00;;;;;;4967936;28;20431;-36
2023/12/15 09:52:33;;;;;;;9.55;6.88;;;10.70;64.00;;;;;;4963692;28;20055;-37
2023/12/15 09:55:00;;;;;;;9.02;6.32;;;10.70;64.00;;;;;;4964152;28;20058;-37
2023/12/15 09:57:29;;;;;;;10.45;6.35;;;10.80;64.00;;;;;;4964803;28;20051;-37
2023/12/15 09:59:57;;;;;;;9.13;6.35;;;10.80;63.90;;;;;;4963843;28;20513;-36
2023/12/15 10:02:24;;;;;;;8.23;5.22;;;10.80;64.00;;;;;;4965949;28;20051;-38
2023/12/15 10:04:51;;;;;;;7.68;5.20;;;10.80;63.90;;;;;;4965263;28;20514;-36
2023/12/15 10:07:20;;;;;;;7.47;5.15;;;10.80;63.90;;;;;;4966609;28;20058;-36
2023/12/15 10:09:48;;;;;;;8.13;5.45;;;10.80;63.90;;;;;;4966588;28;20053;-37
2023/12/15 10:12:15;;;;;;;8.20;5.38;;;10.80;63.90;;;;;;4962323;28;20495;-37
2023/12/15 10:14:42;;;;;;;8.63;4.78;;;10.80;63.80;;;;;;4963904;28;20054;-36
2023/12/15 10:17:10;;;;;;;7.25;5.00;;;10.80;63.90;;;;;;4965383;28;20055;-36
2023/12/15 10:19:38;;;;;;;9.27;5.13;;;10.80;63.90;;;;;;4967912;28;20062;-37
2023/12/15 10:22:06;;;;;;;7.97;4.88;;;10.80;64.00;;;;;;4966497;28;20051;-38
2023/12/15 10:24:36;;;;;;;7.28;5.13;;;10.80;64.10;;;;;;4966196;28;20491;-37
2023/12/15 10:27:04;;;;;;;6.43;4.10;;;10.90;64.30;;;;;;4962818;28;20062;-37
2023/12/15 10:29:31;;;;;;;7.38;5.18;;;10.90;64.30;;;;;;4963762;28;20055;-36
2023/12/15 10:31:59;;;;;;;7.00;4.53;;;10.90;64.30;;;;;;4964476;28;20057;-38
2023/12/15 10:34:28;;;;;;;14.40;4.60;;;11.00;64.20;;;;;;4964026;28;20054;-52
2023/12/15 10:36:56;;;;;;;10.57;4.68;;;11.00;64.10;;;;;;4963171;28;20059;-45
2023/12/15 10:39:24;;;;;;;7.30;4.60;;;11.00;64.10;;;;;;4961126;28;20152;-40
2023/12/15 10:41:55;;;;;;;6.55;4.88;;;11.10;64.00;;;;;;4963331;28;20047;-47
2023/12/15 10:44:26;;;;;;;8.95;5.20;;;11.10;64.00;;;;;;4964394;28;20054;-51
2023/12/15 10:46:53;;;;;;;8.60;5.10;;;11.10;64.10;;;;;;4965462;28;20047;-39
2023/12/15 10:49:21;;;;;;;7.60;5.45;;;11.10;64.10;;;;;;4967054;28;20043;-49
2023/12/15 10:51:49;;;;;;;11.95;5.70;;;11.20;64.10;;;;;;4964192;28;20070;-49
2023/12/15 10:54:18;;;;;;;8.40;5.28;;;11.20;64.00;;;;;;4962102;28;20059;-48
2023/12/15 10:56:47;;;;;;;8.82;5.35;;;11.20;64.00;;;;;;4958794;28;20074;-45
2023/12/15 10:59:16;;;;;;;10.30;6.50;;;11.20;64.10;;;;;;4966493;28;21706;-49
2023/12/15 11:01:47;;;;;;;12.07;6.57;;;11.20;64.10;;;;;;4965700;28;20099;-51
2023/12/15 11:04:19;;;;;;;15.10;7.10;;;11.30;64.10;;;;;;4964778;28;20070;-41
2023/12/15 11:06:47;;;;;;;9.95;7.13;;;11.30;64.10;;;;;;4962677;28;20058;-46
2023/12/15 11:09:27;;;;;;;14.48;7.55;;;11.30;64.10;;;;;;4969126;28;20051;-47
2023/12/15 11:12:19;;;;;;;16.17;7.80;;;11.30;64.00;;;;;;4971835;28;20062;-45
2023/12/15 11:14:58;;;;;;;14.88;8.18;;;11.30;64.00;;;;;;4969657;28;20408;-50
2023/12/15 11:17:26;;;;;;;20.15;9.55;;;11.40;64.10;;;;;;4963960;28;20054;-50
2023/12/15 11:19:59;;;;;;;15.68;9.30;;;11.40;64.10;;;;;;4968310;28;20584;-46
2023/12/15 11:22:28;;;;;;;14.75;9.43;;;11.40;64.20;;;;;;4963008;28;20047;-49
2023/12/15 11:24:57;;;;;;;18.10;10.02;;;11.40;64.40;;;;;;4970777;28;20495;-50
2023/12/15 11:27:25;;;;;;;18.23;9.75;;;11.40;64.50;;;;;;4970355;28;20062;-42
2023/12/15 11:29:54;;;;;;;16.70;9.50;;;11.40;64.50;;;;;;4974983;28;20069;-48
2023/12/15 11:32:33;;;;;;;14.18;9.15;;;11.40;64.50;;;;;;4976033;28;20073;-51
2023/12/15 11:35:01;;;;;;;16.27;9.63;;;11.40;64.50;;;;;;4973228;28;20439;-48
2023/12/15 11:37:29;;;;;;;16.17;9.52;;;11.50;64.60;;;;;;4972604;28;20054;-52
2023/12/15 11:39:58;;;;;;;18.13;10.05;;;11.50;64.60;;;;;;4975201;28;20057;-50
2023/12/15 11:42:26;;;;;;;17.20;10.25;;;11.50;64.80;;;;;;4972649;28;20046;-37
2023/12/15 11:44:54;;;;;;;22.00;11.18;;;11.50;64.60;;;;;;4976245;28;20055;-42
2023/12/15 11:47:22;;;;;;;17.73;10.75;;;11.60;64.50;;;;;;4973111;28;20089;-44
2023/12/15 11:49:51;;;;;;;22.13;11.43;;;11.60;65.00;;;;;;4977238;28;20050;-47
2023/12/15 11:52:19;;;;;;;22.45;11.05;;;11.60;64.20;;;;;;4978058;28;20051;-44
2023/12/15 11:54:46;;;;;;;21.92;12.25;;;11.60;64.10;;;;;;4972763;28;20414;-50
2023/12/15 11:57:13;;;;;;;17.25;11.20;;;11.70;64.00;;;;;;4975171;28;20054;-48
2023/12/15 11:59:45;;;;;;;21.83;11.95;;;11.70;64.10;;;;;;4972192;28;20062;-52
2023/12/15 12:02:17;;;;;;;18.20;11.35;;;11.70;64.00;;;;;;4972328;28;20050;-47
2023/12/15 12:04:47;;;;;;;21.83;11.85;;;11.70;63.90;;;;;;4972463;28;20470;-50
2023/12/15 12:07:14;;;;;;;23.67;11.82;;;11.80;64.00;;;;;;4970978;28;20047;-49
2023/12/15 12:09:42;;;;;;;19.67;11.02;;;11.80;63.90;;;;;;4971389;28;20054;-49
2023/12/15 12:12:10;;;;;;;17.55;10.90;;;11.80;63.80;;;;;;4970035;28;20051;-51
2023/12/15 12:14:41;;;;;;;20.40;11.45;;;11.80;63.80;;;;;;4972577;28;20047;-50
2023/12/15 12:17:10;;;;;;;17.92;10.63;;;11.80;63.80;;;;;;4970492;28;20059;-49
2023/12/15 12:19:42;;;;;;;21.65;11.40;;;11.80;63.90;;;;;;4971547;28;20054;-50
2023/12/15 12:22:13;;;;;;;21.33;12.00;;;11.80;64.00;;;;;;4972170;28;20050;-43
2023/12/15 12:24:40;;;;;;;20.13;11.13;;;11.80;63.80;;;;;;4970199;28;20534;-48
2023/12/15 12:27:08;;;;;;;30.77;12.27;;;11.90;63.80;;;;;;4968834;28;20050;-51
2023/12/15 12:29:39;;;;;;;17.60;11.05;;;11.90;63.60;;;;;;4971172;28;20062;-52
2023/12/15 12:32:07;;;;;;;25.15;11.82;;;11.90;63.50;;;;;;4969399;28;20078;-50
2023/12/15 12:34:34;;;;;;;23.55;11.63;;;11.90;63.40;;;;;;4971387;28;20050;-50
2023/12/15 12:37:03;;;;;;;22.98;11.95;;;11.90;63.40;;;;;;4972213;28;21429;-50
2023/12/15 12:39:31;;;;;;;20.00;10.25;;;12.00;63.40;;;;;;4969938;28;20054;-49
2023/12/15 12:41:58;;;;;;;19.08;11.15;;;12.00;63.50;;;;;;4969083;28;20059;-48